createdAt,value
2022-11-22T00:00:43.310Z,99128.78
2022-11-22T00:03:10.304Z,99126.34
2022-11-22T00:05:37.587Z,99130.63
2022-11-22T00:08:04.860Z,99126.31
2022-11-22T00:10:32.503Z,99124.25
2022-11-22T00:12:59.623Z,99111.56
2022-11-22T00:15:26.531Z,99108.88
2022-11-22T00:17:53.358Z,99112.16
2022-11-22T00:20:20.280Z,99117.69
2022-11-22T00:22:47.677Z,99115.88
2022-11-22T00:25:14.698Z,99118.94
2022-11-22T00:27:41.926Z,99108.66
2022-11-22T00:30:09.704Z,99100.22
2022-11-22T00:32:36.706Z,99108.00
2022-11-22T00:35:04.007Z,99105.19
2022-11-22T00:37:30.951Z,99092.09
2022-11-22T00:39:57.866Z,99087.38
2022-11-22T00:42:25.020Z,99090.66
2022-11-22T00:44:51.824Z,99099.25
2022-11-22T00:47:18.724Z,99097.56
2022-11-22T00:49:45.557Z,99092.84
2022-11-22T00:52:12.457Z,99079.75
2022-11-22T00:54:39.427Z,99076.88
2022-11-22T00:57:06.460Z,99074.84
2022-11-22T00:59:33.291Z,99068.09
2022-11-22T01:02:00.161Z,99066.28
2022-11-22T01:04:27.059Z,99065.41
2022-11-22T01:06:54.014Z,99066.66
2022-11-22T01:09:23.030Z,99073.84
2022-11-22T01:11:50.865Z,99073.84
2022-11-22T01:14:18.208Z,99062.53
2022-11-22T01:16:45.694Z,99071.78
2022-11-22T01:19:12.887Z,99068.50
2022-11-22T01:21:40.288Z,99057.25
2022-11-22T01:24:07.639Z,99052.75
2022-11-22T01:26:35.396Z,99046.19
2022-11-22T01:29:02.243Z,99047.00
2022-11-22T01:31:30.285Z,99041.66
2022-11-22T01:33:59.069Z,99046.38
2022-11-22T01:36:27.741Z,99038.00
2022-11-22T01:38:55.110Z,99041.44
2022-11-22T01:41:22.084Z,99041.84
2022-11-22T01:43:48.930Z,99040.84
2022-11-22T01:46:19.985Z,99031.03
2022-11-22T01:48:56.300Z,99031.84
2022-11-22T01:51:35.765Z,99023.63
2022-11-22T01:54:08.010Z,99011.53
2022-11-22T01:56:37.674Z,99021.78
2022-11-22T01:59:10.323Z,99009.28
2022-11-22T02:01:37.930Z,98998.63
2022-11-22T02:04:08.722Z,98988.81
2022-11-22T02:06:57.681Z,98986.13
2022-11-22T02:09:24.888Z,98977.31
2022-11-22T02:11:56.165Z,98970.53
2022-11-22T02:14:26.307Z,98968.50
2022-11-22T02:16:53.409Z,98970.94
2022-11-22T02:19:43.806Z,98962.16
2022-11-22T02:22:28.714Z,98962.97
2022-11-22T02:25:07.683Z,98964.00
2022-11-22T02:27:34.643Z,98960.91
2022-11-22T02:30:01.454Z,98965.22
2022-11-22T02:32:28.353Z,98967.69
2022-11-22T02:34:55.167Z,98964.00
2022-11-22T02:37:29.594Z,98975.88
2022-11-22T02:40:01.420Z,98978.13
2022-11-22T02:42:30.629Z,98969.34
2022-11-22T02:44:57.426Z,98970.78
2022-11-22T02:47:24.306Z,98969.31
2022-11-22T02:49:53.355Z,98957.44
2022-11-22T02:52:20.432Z,98958.69
2022-11-22T02:54:47.267Z,98957.03
2022-11-22T02:57:14.408Z,98944.31
2022-11-22T02:59:41.350Z,98940.03
2022-11-22T03:02:08.243Z,98937.75
2022-11-22T03:04:35.125Z,98943.50
2022-11-22T03:07:02.361Z,98929.38
2022-11-22T03:09:29.813Z,98920.97
2022-11-22T03:11:56.983Z,98913.78
2022-11-22T03:14:24.042Z,98922.63
2022-11-22T03:16:51.489Z,98908.47
2022-11-22T03:19:18.547Z,98912.16
2022-11-22T03:21:45.824Z,98913.78
2022-11-22T03:24:12.862Z,98920.56
2022-11-22T03:26:39.816Z,98919.75
2022-11-22T03:29:06.659Z,98916.03
2022-11-22T03:31:33.497Z,98912.16
2022-11-22T03:34:00.517Z,98909.50
2022-11-22T03:36:27.371Z,98913.38
2022-11-22T03:38:54.142Z,98891.66
2022-11-22T03:41:21.015Z,98889.03
2022-11-22T03:43:47.888Z,98884.72
2022-11-22T03:46:16.313Z,98882.06
2022-11-22T03:48:43.270Z,98877.75
2022-11-22T03:51:10.219Z,98871.19
2022-11-22T03:53:37.071Z,98878.97
2022-11-22T03:56:04.945Z,98884.72
2022-11-22T03:58:32.059Z,98871.81
2022-11-22T04:00:59.478Z,98873.25
2022-11-22T04:03:26.455Z,98863.81
2022-11-22T04:05:53.434Z,98849.69
2022-11-22T04:08:20.258Z,98848.47
2022-11-22T04:10:49.353Z,98847.66
2022-11-22T04:13:16.549Z,98849.69
2022-11-22T04:15:43.383Z,98845.16
2022-11-22T04:18:11.605Z,98849.06
2022-11-22T04:20:58.031Z,98850.94
2022-11-22T04:23:32.271Z,98838.03
2022-11-22T04:26:01.002Z,98841.91
2022-11-22T04:28:47.021Z,98839.06
2022-11-22T04:31:33.105Z,98831.06
2022-11-22T04:33:59.999Z,98830.88
2022-11-22T04:36:26.771Z,98826.53
2022-11-22T04:38:53.633Z,98816.53
2022-11-22T04:41:20.544Z,98814.88
2022-11-22T04:44:05.736Z,98818.34
2022-11-22T04:46:32.655Z,98812.84
2022-11-22T04:48:59.420Z,98808.75
2022-11-22T04:51:44.754Z,98807.94
2022-11-22T04:54:11.588Z,98806.69
2022-11-22T04:56:38.391Z,98795.84
2022-11-22T04:59:05.445Z,98795.44
2022-11-22T05:01:32.400Z,98789.50
2022-11-22T05:03:59.327Z,98785.41
2022-11-22T05:06:26.266Z,98776.84
2022-11-22T05:08:53.277Z,98774.75
2022-11-22T05:11:20.078Z,98773.56
2022-11-22T05:13:46.957Z,98765.56
2022-11-22T05:16:15.717Z,98763.53
2022-11-22T05:18:43.165Z,98768.00
2022-11-22T05:21:12.864Z,98761.25
2022-11-22T05:23:55.704Z,98764.34
2022-11-22T05:26:35.323Z,98768.00
2022-11-22T05:29:10.501Z,98764.13
2022-11-22T05:31:39.510Z,98763.53
2022-11-22T05:34:06.667Z,98757.38
2022-11-22T05:36:35.118Z,98757.78
2022-11-22T05:39:02.789Z,98764.34
2022-11-22T05:41:29.748Z,98753.50
2022-11-22T05:43:57.193Z,98763.13
2022-11-22T05:46:29.463Z,98758.59
2022-11-22T05:48:58.024Z,98755.34
2022-11-22T05:51:33.695Z,98751.44
2022-11-22T05:54:02.213Z,98748.78
2022-11-22T05:56:29.035Z,98743.66
2022-11-22T05:58:56.023Z,98744.06
2022-11-22T06:01:24.444Z,98736.91
2022-11-22T06:03:52.156Z,98732.19
2022-11-22T06:06:19.446Z,98741.38
2022-11-22T06:08:48.369Z,98732.81
2022-11-22T06:11:21.365Z,98729.09
2022-11-22T06:13:53.554Z,98716.56
2022-11-22T06:16:20.499Z,98716.56
2022-11-22T06:18:47.899Z,98714.53
2022-11-22T06:21:17.898Z,98710.00
2022-11-22T06:23:44.994Z,98704.06
2022-11-22T06:26:14.735Z,98705.28
2022-11-22T06:28:42.010Z,98708.09
2022-11-22T06:31:16.607Z,98710.56
2022-11-22T06:33:44.381Z,98695.38
2022-11-22T06:36:16.865Z,98687.97
2022-11-22T06:38:45.383Z,98699.22
2022-11-22T06:41:17.813Z,98690.41
2022-11-22T06:43:48.982Z,98698.41
2022-11-22T06:46:19.072Z,98690.41
2022-11-22T06:48:46.579Z,98687.13
2022-11-22T06:51:21.973Z,98686.06
2022-11-22T06:53:50.009Z,98678.94
2022-11-22T06:56:22.764Z,98678.69
2022-11-22T06:58:51.557Z,98675.03
2022-11-22T07:01:21.279Z,98675.59
2022-11-22T07:03:49.182Z,98678.03
2022-11-22T07:06:17.688Z,98675.56
2022-11-22T07:08:45.255Z,98676.69
2022-11-22T07:11:17.359Z,98672.31
2022-11-22T07:13:44.728Z,98677.63
2022-11-22T07:16:13.490Z,98685.44
2022-11-22T07:18:40.602Z,98674.13
2022-11-22T07:21:13.119Z,98682.25
2022-11-22T07:23:42.335Z,98682.81
2022-11-22T07:26:09.825Z,98683.94
2022-11-22T07:28:37.364Z,98682.84
2022-11-22T07:31:07.117Z,98687.09
2022-11-22T07:33:34.173Z,98685.69
2022-11-22T07:36:15.125Z,98688.31
2022-11-22T07:38:42.199Z,98701.22
2022-11-22T07:41:09.240Z,98690.44
2022-11-22T07:43:36.692Z,98697.34
2022-11-22T07:46:08.674Z,98702.53
2022-11-22T07:48:35.580Z,98693.69
2022-11-22T07:51:06.899Z,98680.31
2022-11-22T07:53:35.056Z,98684.94
2022-11-22T07:56:05.788Z,98685.56
2022-11-22T07:58:33.677Z,98671.69
2022-11-22T08:01:09.185Z,98657.69
2022-11-22T08:03:37.034Z,98652.56
2022-11-22T08:06:05.894Z,98650.19
2022-11-22T08:08:33.625Z,98642.84
2022-11-22T08:11:00.574Z,98651.28
2022-11-22T08:13:28.091Z,98633.56
2022-11-22T08:15:57.543Z,98629.44
2022-11-22T08:18:26.567Z,98610.97
2022-11-22T08:21:02.443Z,98605.22
2022-11-22T08:23:29.354Z,98601.47
2022-11-22T08:25:58.516Z,98608.31
2022-11-22T08:28:25.450Z,98617.47
2022-11-22T08:30:52.626Z,98613.94
2022-11-22T08:33:19.526Z,98609.75
2022-11-22T08:35:50.183Z,98603.44
2022-11-22T08:38:17.108Z,98602.06
2022-11-22T08:40:43.899Z,98587.00
2022-11-22T08:43:10.734Z,98583.06
2022-11-22T08:45:38.278Z,98593.28
2022-11-22T08:48:05.268Z,98581.47
2022-11-22T08:50:32.100Z,98581.31
2022-11-22T08:53:01.483Z,98584.34
2022-11-22T08:55:28.324Z,98582.34
2022-11-22T08:57:59.418Z,98580.94
2022-11-22T09:00:32.893Z,98572.91
2022-11-22T09:03:00.376Z,98580.31
2022-11-22T09:05:27.254Z,98570.91
2022-11-22T09:10:40.942Z,98568.63
2022-11-22T09:13:07.735Z,98550.53
2022-11-22T09:15:34.662Z,98554.13
2022-11-22T09:18:04.411Z,98555.72
2022-11-22T09:20:31.382Z,98556.75
2022-11-22T09:22:58.165Z,98554.28
2022-11-22T09:25:25.019Z,98551.22
2022-11-22T09:27:51.812Z,98547.56
2022-11-22T09:30:18.721Z,98533.47
2022-11-22T09:32:45.693Z,98506.78
2022-11-22T09:35:12.598Z,98497.94
2022-11-22T09:37:39.396Z,98487.84
2022-11-22T09:40:06.949Z,98485.72
2022-11-22T09:43:18.424Z,98481.97
2022-11-22T09:46:23.646Z,98431.88
2022-11-22T09:49:21.177Z,98457.50
2022-11-22T09:52:08.157Z,98462.91
2022-11-22T09:54:43.980Z,98454.69
2022-11-22T09:57:18.598Z,98445.03
2022-11-22T09:59:50.564Z,98440.59
2022-11-22T10:02:27.605Z,98437.16
2022-11-22T10:05:01.256Z,98435.16
2022-11-22T10:08:22.248Z,98418.41
2022-11-22T10:10:53.771Z,98409.84
2022-11-22T10:13:31.199Z,98400.22
2022-11-22T10:16:21.059Z,98402.97
2022-11-22T10:18:56.988Z,98385.59
2022-11-22T10:21:23.920Z,98391.72
2022-11-22T10:23:50.697Z,98390.72
2022-11-22T10:26:25.222Z,98380.41
2022-11-22T10:29:10.505Z,98376.69
2022-11-22T10:31:43.291Z,98383.00
2022-11-22T10:34:10.090Z,98389.22
2022-11-22T10:37:06.331Z,98388.19
2022-11-22T10:39:43.587Z,98393.94
2022-11-22T10:42:27.964Z,98393.47
2022-11-22T10:45:10.173Z,98389.81
2022-11-22T10:47:52.229Z,98386.44
2022-11-22T10:50:22.251Z,98388.13
2022-11-22T10:52:57.807Z,98393.91
2022-11-22T10:55:47.552Z,98376.88
2022-11-22T10:58:48.415Z,98379.91
2022-11-22T11:01:46.087Z,98376.75
2022-11-22T11:04:17.112Z,98380.09
2022-11-22T11:07:11.565Z,98380.59
2022-11-22T11:12:54.928Z,98362.56
2022-11-22T11:15:28.254Z,98351.47
2022-11-22T11:18:01.370Z,98343.31
2022-11-22T11:20:41.501Z,98332.50
2022-11-22T11:23:15.840Z,98327.38
2022-11-22T11:25:45.951Z,98315.47
2022-11-22T11:28:28.579Z,98306.91
2022-11-22T11:31:01.140Z,98306.91
2022-11-22T11:33:33.381Z,98291.50
2022-11-22T11:36:06.890Z,98294.31
2022-11-22T11:38:42.316Z,98280.34
2022-11-22T11:41:26.316Z,98265.31
2022-11-22T11:43:55.489Z,98255.84
2022-11-22T11:46:23.128Z,98233.06
2022-11-22T11:48:51.647Z,98244.66
2022-11-22T11:51:23.160Z,98253.53
2022-11-22T11:53:55.972Z,98239.53
2022-11-22T11:56:47.017Z,98218.78
2022-11-22T11:59:25.915Z,98224.25
2022-11-22T12:01:57.277Z,98212.22
2022-11-22T12:04:50.328Z,98207.00
2022-11-22T12:07:47.038Z,98198.22
2022-11-22T12:10:37.967Z,98199.50
2022-11-22T12:13:51.543Z,98183.50
2022-11-22T12:16:44.122Z,98189.44
2022-11-22T12:19:43.457Z,98181.44
2022-11-22T12:22:49.784Z,98184.22
2022-11-22T12:25:33.224Z,98175.78
2022-11-22T12:28:24.195Z,98182.84
2022-11-22T12:31:15.306Z,98174.25
2022-11-22T12:33:47.570Z,98163.34
2022-11-22T12:36:32.975Z,98169.97
2022-11-22T12:39:02.948Z,98164.44
2022-11-22T12:41:32.244Z,98156.09
2022-11-22T12:44:02.957Z,98138.31
2022-11-22T12:46:42.322Z,98146.78
2022-11-22T12:49:27.953Z,98146.78
2022-11-22T12:52:19.304Z,98139.84
2022-11-22T12:54:59.536Z,98134.81
2022-11-22T12:57:31.989Z,98135.19
2022-11-22T13:00:05.575Z,98117.78
2022-11-22T13:02:40.738Z,98116.25
2022-11-22T13:05:26.948Z,98110.34
2022-11-22T13:08:12.088Z,98103.16
2022-11-22T13:10:48.507Z,98107.22
2022-11-22T13:13:34.030Z,98106.25
2022-11-22T13:16:06.315Z,98103.59
2022-11-22T13:18:37.189Z,98093.28
2022-11-22T13:21:19.060Z,98097.91
2022-11-22T13:24:14.548Z,98100.09
2022-11-22T13:26:53.707Z,98083.03
2022-11-22T13:29:27.101Z,98105.19
2022-11-22T13:32:15.762Z,98101.13
2022-11-22T13:35:19.068Z,98107.31
2022-11-22T13:37:49.690Z,98105.44
2022-11-22T13:40:16.556Z,98099.53
2022-11-22T13:42:43.633Z,98094.66
2022-11-22T13:45:24.719Z,98106.38
2022-11-22T13:47:52.339Z,98106.25
2022-11-22T13:50:40.048Z,98087.47
2022-11-22T13:53:18.842Z,98088.16
2022-11-22T13:55:46.724Z,98085.75
2022-11-22T13:58:25.844Z,98078.78
2022-11-22T14:00:53.807Z,98092.84
2022-11-22T14:03:24.522Z,98056.41
2022-11-22T14:05:54.048Z,98070.47
2022-11-22T14:08:28.690Z,98069.06
2022-11-22T14:10:55.520Z,98064.97
2022-11-22T14:13:43.161Z,98077.19
2022-11-22T14:16:48.949Z,98076.59
2022-11-22T14:19:54.342Z,98064.53
2022-11-22T14:22:50.430Z,98076.72
2022-11-22T14:25:38.691Z,98055.72
2022-11-22T14:28:18.982Z,98060.59
2022-11-22T14:30:54.336Z,98046.19
2022-11-22T14:33:28.731Z,98051.53
2022-11-22T14:36:07.281Z,98051.31
2022-11-22T14:38:41.281Z,98031.84
2022-11-22T14:41:26.313Z,98049.22
2022-11-22T14:43:59.896Z,98051.91
2022-11-22T14:46:52.212Z,98050.03
2022-11-22T14:49:26.684Z,98053.72
2022-11-22T14:51:56.982Z,98045.97
2022-11-22T14:54:29.066Z,98053.50
2022-11-22T14:57:04.351Z,98065.78
2022-11-22T14:59:49.670Z,98041.34
2022-11-22T15:02:44.001Z,98045.84
2022-11-22T15:09:09.902Z,98064.31
2022-11-22T15:09:20.509Z,98065.38
2022-11-22T15:12:00.293Z,98066.63
2022-11-22T15:14:47.823Z,98058.03
2022-11-22T15:57:57.492Z,98075.22
2022-11-22T16:00:27.665Z,98071.97
2022-11-22T16:02:58.426Z,98075.22
2022-11-22T16:06:10.075Z,98081.47
2022-11-22T16:08:21.235Z,98078.25
2022-11-22T16:10:51.377Z,98060.72
2022-11-22T16:13:21.278Z,98067.78
2022-11-22T16:16:17.586Z,98086.78
2022-11-22T16:18:45.242Z,98073.13
2022-11-22T16:21:12.026Z,98087.16
2022-11-22T16:23:40.500Z,98083.09
2022-11-22T16:26:19.496Z,98069.66
2022-11-22T16:28:51.651Z,98077.53
2022-11-22T16:31:30.619Z,98095.59
2022-11-22T16:33:58.459Z,98087.97
2022-11-22T16:36:29.352Z,98081.25
2022-11-22T16:38:56.263Z,98086.59
2022-11-22T16:41:25.754Z,98090.97
2022-11-22T16:43:55.380Z,98100.34
2022-11-22T16:46:23.152Z,98090.38
2022-11-22T16:48:50.167Z,98104.97
2022-11-22T16:51:31.164Z,98119.38
2022-11-22T16:54:00.235Z,98121.22
2022-11-22T16:56:29.193Z,98126.78
2022-11-22T16:58:57.606Z,98118.31
2022-11-22T17:01:36.432Z,98117.03
2022-11-22T17:04:05.907Z,98114.25
2022-11-22T17:06:33.861Z,98123.88
2022-11-22T17:09:01.327Z,98118.69
2022-11-22T17:11:32.309Z,98123.78
2022-11-22T17:14:00.294Z,98127.69
2022-11-22T17:16:27.141Z,98130.84
2022-11-22T17:18:54.295Z,98127.94
2022-11-22T17:21:32.756Z,98124.47
2022-11-22T17:24:02.281Z,98129.13
2022-11-22T17:26:29.434Z,98127.38
2022-11-22T17:28:56.442Z,98132.69
2022-11-22T17:31:23.511Z,98119.16
2022-11-22T17:33:52.080Z,98128.16
2022-11-22T17:36:25.705Z,98133.03
2022-11-22T17:38:52.679Z,98138.38
2022-11-22T17:41:19.674Z,98134.88
2022-11-22T17:43:46.762Z,98139.63
2022-11-22T17:46:13.704Z,98140.81
2022-11-22T17:48:40.661Z,98135.25
2022-11-22T17:51:09.591Z,98133.41
2022-11-22T17:53:36.487Z,98129.13
2022-11-22T17:56:11.933Z,98114.53
2022-11-22T17:58:40.584Z,98108.13
2022-11-22T18:01:08.500Z,98106.75
2022-11-22T18:03:35.573Z,98104.28
2022-11-22T18:06:02.651Z,98094.00
2022-11-22T18:08:29.594Z,98094.22
2022-11-22T18:10:59.770Z,98094.00
2022-11-22T18:13:27.338Z,98088.66
2022-11-22T18:16:00.111Z,98089.13
2022-11-22T18:18:57.822Z,98071.88
2022-11-22T18:21:17.776Z,98086.22
2022-11-22T18:23:45.601Z,98092.59
2022-11-22T18:34:33.708Z,98087.28
2022-11-22T18:37:03.550Z,98078.00
2022-11-22T18:39:38.262Z,98061.75
2022-11-22T18:42:07.594Z,98054.91
2022-11-22T18:44:34.549Z,98080.66
2022-11-22T18:47:01.885Z,98078.81
2022-11-22T18:49:29.080Z,98082.75
2022-11-22T18:51:56.184Z,98069.53
2022-11-22T18:54:23.398Z,98062.47
2022-11-22T18:56:53.094Z,98068.13
2022-11-22T18:59:20.101Z,98078.47
2022-11-22T19:01:47.032Z,98087.63
2022-11-22T19:04:15.237Z,98085.75
2022-11-22T19:06:43.207Z,98075.44
2022-11-22T19:09:10.559Z,98083.78
2022-11-22T19:11:37.668Z,98084.59
2022-11-22T19:14:04.831Z,98087.75
2022-11-22T19:16:31.795Z,98089.25
2022-11-22T19:18:59.183Z,98085.19
2022-11-22T19:21:28.178Z,98083.53
2022-11-22T19:23:56.656Z,98090.97
2022-11-22T19:26:26.281Z,98104.56
2022-11-22T19:28:57.932Z,98105.47
2022-11-22T19:31:29.122Z,98114.31
2022-11-22T19:33:56.552Z,98109.31
2022-11-22T19:36:30.765Z,98099.56
2022-11-22T19:38:59.738Z,98113.72
2022-11-22T19:41:27.000Z,98106.16
2022-11-22T19:43:56.012Z,98108.03
2022-11-22T19:46:23.870Z,98120.22
2022-11-22T19:48:56.576Z,98122.88
2022-11-22T19:51:24.753Z,98114.28
2022-11-22T19:54:00.144Z,98133.75
2022-11-22T19:56:30.703Z,98131.09
2022-11-22T19:58:59.224Z,98117.66
2022-11-22T20:01:28.685Z,98117.41
2022-11-22T20:04:01.598Z,98128.66
2022-11-22T20:06:29.118Z,98124.28
2022-11-22T20:09:10.267Z,98135.50
2022-11-22T20:11:41.846Z,98139.81
2022-11-22T20:14:09.713Z,98153.25
2022-11-22T20:16:38.517Z,98137.34
2022-11-22T20:19:07.677Z,98137.25
2022-11-22T20:21:35.793Z,98135.63
2022-11-22T20:24:04.074Z,98152.09
2022-11-22T20:26:33.061Z,98144.78
2022-11-22T20:29:08.164Z,98150.34
2022-11-22T20:31:36.946Z,98149.66
2022-11-22T20:34:03.875Z,98156.16
2022-11-22T20:36:32.968Z,98158.09
2022-11-22T20:39:04.022Z,98150.31
2022-11-22T20:41:33.904Z,98158.31
2022-11-22T20:44:00.929Z,98154.28
2022-11-22T20:46:29.157Z,98161.94
2022-11-22T20:49:00.798Z,98164.22
2022-11-22T20:51:28.917Z,98162.59
2022-11-22T20:53:56.483Z,98183.47
2022-11-22T20:56:24.075Z,98162.94
2022-11-22T20:58:51.173Z,98172.22
2022-11-22T21:01:27.047Z,98179.06
2022-11-22T21:03:54.633Z,98192.81
2022-11-22T21:06:24.241Z,98186.81
2022-11-22T21:08:51.656Z,98180.69
2022-11-22T21:11:19.872Z,98186.59
2022-11-22T21:13:47.628Z,98187.28
2022-11-22T21:16:23.690Z,98192.47
2022-11-22T21:18:59.639Z,98198.88
2022-11-22T21:21:27.094Z,98191.44
2022-11-22T21:23:55.959Z,98191.44
2022-11-22T21:26:24.501Z,98192.22
2022-11-22T21:28:52.824Z,98199.75
2022-11-22T21:31:21.069Z,98200.56
2022-11-22T21:33:48.298Z,98195.34
2022-11-22T21:36:15.514Z,98191.75
2022-11-22T21:38:42.353Z,98200.69
2022-11-22T21:44:08.789Z,98206.53
2022-11-22T21:46:35.639Z,98216.31
2022-11-22T21:49:02.516Z,98224.56
2022-11-22T21:51:29.372Z,98220.50
2022-11-22T21:53:58.057Z,98224.09
2022-11-22T21:56:25.874Z,98230.06
2022-11-22T21:58:52.819Z,98230.31
2022-11-22T22:01:19.707Z,98230.31
2022-11-22T22:03:46.662Z,98224.25
2022-11-22T22:06:13.498Z,98237.25
2022-11-22T22:08:40.936Z,98238.06
2022-11-22T22:11:08.258Z,98233.16
2022-11-22T22:13:35.344Z,98233.16
2022-11-22T22:16:06.898Z,98234.47
2022-11-22T22:18:35.664Z,98231.78
2022-11-22T22:21:08.105Z,98233.28
2022-11-22T22:23:36.960Z,98231.13
2022-11-22T22:26:06.135Z,98236.59
2022-11-22T22:28:34.936Z,98230.56
2022-11-22T22:31:14.863Z,98237.69
2022-11-22T22:33:42.680Z,98251.69
2022-11-22T22:36:17.062Z,98245.53
2022-11-22T22:39:04.472Z,98248.47
2022-11-22T22:41:31.470Z,98238.69
2022-11-22T22:43:58.322Z,98240.72
2022-11-22T22:46:25.230Z,98252.25
2022-11-22T22:48:55.135Z,98255.13
2022-11-22T22:51:26.244Z,98263.69
2022-11-22T22:53:58.326Z,98273.69
2022-11-22T22:56:26.516Z,98266.41
2022-11-22T22:58:58.436Z,98272.56
2022-11-22T23:01:27.562Z,98267.72
2022-11-22T23:03:59.204Z,98283.53
2022-11-22T23:06:28.138Z,98275.91
2022-11-22T23:08:55.688Z,98294.88
2022-11-22T23:11:45.270Z,98287.47
2022-11-22T23:14:13.955Z,98286.34
2022-11-22T23:16:41.397Z,98284.78
2022-11-22T23:19:09.257Z,98283.56
2022-11-22T23:21:36.423Z,98288.88
2022-11-22T23:24:04.136Z,98306.28
2022-11-22T23:26:31.376Z,98308.56
2022-11-22T23:28:58.999Z,98306.97
2022-11-22T23:31:26.373Z,98303.69
2022-11-22T23:33:53.695Z,98312.69
2022-11-22T23:36:21.950Z,98311.66
2022-11-22T23:38:49.172Z,98306.22
2022-11-22T23:41:20.002Z,98308.00
2022-11-22T23:43:47.903Z,98305.75
2022-11-22T23:46:18.124Z,98309.44
2022-11-22T23:48:45.422Z,98318.59
2022-11-22T23:51:12.852Z,98311.84
2022-11-22T23:53:40.125Z,98323.28
2022-11-22T23:56:12.059Z,98303.91
2022-11-22T23:58:39.148Z,98308.19
